sensor_id;sensor_type;location;lat;lon;timestamp;pressure;altitude;pressure_sealevel;temperature;humidity
72055;BME280;59936;51.490;5.436;2024-02-16T10:29:59;101099.16;;;13.09;83.70
72055;BME280;59936;51.490;5.436;2024-02-16T10:32:29;101103.88;;;13.07;80.65
72055;BME280;59936;51.490;5.436;2024-02-16T10:34:59;101105.19;;;13.11;82.70
72055;BME280;59936;51.490;5.436;2024-02-16T10:37:29;101112.13;;;13.05;82.53
72055;BME280;59936;51.490;5.436;2024-02-16T10:39:59;101109.78;;;13.02;83.35
72055;BME280;59936;51.490;5.436;2024-02-16T10:42:37;101125.06;;;13.10;83.90
72055;BME280;59936;51.490;5.436;2024-02-16T10:45:56;101129.78;;;13.08;83.98
72055;BME280;59936;51.490;5.436;2024-02-16T10:48:24;101132.72;;;12.98;84.43
72055;BME280;59936;51.490;5.436;2024-02-16T10:50:52;101130.03;;;12.98;84.50
72055;BME280;59936;51.490;5.436;2024-02-16T10:53:26;101138.44;;;12.95;84.72
72055;BME280;59936;51.490;5.436;2024-02-16T10:55:57;101131.13;;;13.03;84.44
72055;BME280;59936;51.490;5.436;2024-02-16T10:58:27;101138.72;;;13.00;84.49
72055;BME280;59936;51.490;5.436;2024-02-16T11:00:54;101135.69;;;13.03;84.20
72055;BME280;59936;51.490;5.436;2024-02-16T11:03:24;101145.09;;;13.07;84.24
72055;BME280;59936;51.490;5.436;2024-02-16T11:05:52;101149.47;;;13.08;84.02
72055;BME280;59936;51.490;5.436;2024-02-16T11:08:24;101154.13;;;13.14;83.85
72055;BME280;59936;51.490;5.436;2024-02-16T11:11:01;101151.78;;;13.11;83.90
72055;BME280;59936;51.490;5.436;2024-02-16T11:13:31;101152.16;;;13.16;83.64
72055;BME280;59936;51.490;5.436;2024-02-16T11:16:02;101152.16;;;13.16;83.35
72055;BME280;59936;51.490;5.436;2024-02-16T11:18:41;101160.22;;;13.16;83.33
72055;BME280;59936;51.490;5.436;2024-02-16T11:21:12;101169.06;;;13.25;83.32
72055;BME280;59936;51.490;5.436;2024-02-16T11:23:41;101176.31;;;13.24;82.40
72055;BME280;59936;51.490;5.436;2024-02-16T11:26:09;101171.66;;;13.18;82.72
72055;BME280;59936;51.490;5.436;2024-02-16T11:28:40;101174.34;;;13.18;83.04
72055;BME280;59936;51.490;5.436;2024-02-16T11:31:08;101169.25;;;13.23;83.50
72055;BME280;59936;51.490;5.436;2024-02-16T11:33:35;101177.09;;;13.33;82.87
72055;BME280;59936;51.490;5.436;2024-02-16T11:36:04;101173.97;;;13.21;83.17
72055;BME280;59936;51.490;5.436;2024-02-16T11:38:31;101184.59;;;13.15;83.94
72055;BME280;59936;51.490;5.436;2024-02-16T11:41:04;101185.56;;;13.22;83.89
72055;BME280;59936;51.490;5.436;2024-02-16T11:43:32;101184.19;;;12.95;84.93
72055;BME280;59936;51.490;5.436;2024-02-16T11:46:10;101191.44;;;12.94;84.91
72055;BME280;59936;51.490;5.436;2024-02-16T11:48:41;101200.19;;;12.88;85.58
72055;BME280;59936;51.490;5.436;2024-02-16T11:51:08;101206.25;;;12.82;86.64
72055;BME280;59936;51.490;5.436;2024-02-16T11:53:35;101208.00;;;12.75;86.39
72055;BME280;59936;51.490;5.436;2024-02-16T11:56:01;101217.59;;;12.69;87.60
72055;BME280;59936;51.490;5.436;2024-02-16T11:58:29;101214.56;;;12.64;87.18
72055;BME280;59936;51.490;5.436;2024-02-16T12:00:56;101224.03;;;12.52;88.26
72055;BME280;59936;51.490;5.436;2024-02-16T12:03:24;101219.16;;;12.48;88.20
72055;BME280;59936;51.490;5.436;2024-02-16T12:05:58;101218.16;;;12.49;88.96
72055;BME280;59936;51.490;5.436;2024-02-16T12:08:33;101228.56;;;12.52;87.48
72055;BME280;59936;51.490;5.436;2024-02-16T12:11:02;101217.28;;;12.56;87.90
72055;BME280;59936;51.490;5.436;2024-02-16T12:13:29;101227.56;;;12.45;88.59
72055;BME280;59936;51.490;5.436;2024-02-16T12:15:56;101234.06;;;12.58;88.13
72055;BME280;59936;51.490;5.436;2024-02-16T12:18:24;101233.09;;;12.51;88.14
72055;BME280;59936;51.490;5.436;2024-02-16T12:21:02;101232.09;;;12.44;88.73
72055;BME280;59936;51.490;5.436;2024-02-16T12:23:31;101242.34;;;12.41;89.91
72055;BME280;59936;51.490;5.436;2024-02-16T12:26:00;101244.75;;;12.27;89.78
72055;BME280;59936;51.490;5.436;2024-02-16T12:28:28;101247.94;;;12.23;90.97
72055;BME280;59936;51.490;5.436;2024-02-16T12:30:56;101242.38;;;12.24;91.13
72055;BME280;59936;51.490;5.436;2024-02-16T12:33:24;101254.66;;;12.19;91.67
72055;BME280;59936;51.490;5.436;2024-02-16T12:35:52;101256.16;;;12.13;91.41
72055;BME280;59936;51.490;5.436;2024-02-16T12:38:19;101260.22;;;12.09;92.35
72055;BME280;59936;51.490;5.436;2024-02-16T12:40:48;101264.06;;;12.07;93.05
72055;BME280;59936;51.490;5.436;2024-02-16T12:43:15;101266.44;;;12.10;92.52
72055;BME280;59936;51.490;5.436;2024-02-16T12:45:42;101270.63;;;12.12;92.14
72055;BME280;59936;51.490;5.436;2024-02-16T12:48:09;101281.69;;;12.17;91.21
72055;BME280;59936;51.490;5.436;2024-02-16T12:50:36;101279.34;;;12.14;92.97
72055;BME280;59936;51.490;5.436;2024-02-16T12:53:03;101292.47;;;12.09;92.84
72055;BME280;59936;51.490;5.436;2024-02-16T12:55:30;101298.00;;;12.08;92.27
72055;BME280;59936;51.490;5.436;2024-02-16T12:57:57;101297.00;;;12.09;92.46
72055;BME280;59936;51.490;5.436;2024-02-16T13:00:24;101306.38;;;12.13;94.13
72055;BME280;59936;51.490;5.436;2024-02-16T13:02:50;101306.38;;;12.13;94.13
72055;BME280;59936;51.490;5.436;2024-02-16T13:05:17;101314.28;;;12.14;92.75
72055;BME280;59936;51.490;5.436;2024-02-16T13:07:44;101316.81;;;12.16;93.08
72055;BME280;59936;51.490;5.436;2024-02-16T13:10:11;101326.25;;;12.12;92.76
72055;BME280;59936;51.490;5.436;2024-02-16T13:12:38;101329.09;;;12.10;92.98
72055;BME280;59936;51.490;5.436;2024-02-16T13:15:05;101332.44;;;12.04;94.00
72055;BME280;59936;51.490;5.436;2024-02-16T13:17:32;101340.97;;;11.99;93.92
72055;BME280;59936;51.490;5.436;2024-02-16T13:20:00;101338.28;;;11.91;94.27
72055;BME280;59936;51.490;5.436;2024-02-16T13:22:27;101341.81;;;11.84;95.15
72055;BME280;59936;51.490;5.436;2024-02-16T13:24:54;101345.66;;;11.81;94.65
72055;BME280;59936;51.490;5.436;2024-02-16T13:27:20;101357.44;;;11.88;94.23
72055;BME280;59936;51.490;5.436;2024-02-16T13:29:47;101352.53;;;11.84;93.76
72055;BME280;59936;51.490;5.436;2024-02-16T13:32:14;101357.75;;;11.85;93.41
72055;BME280;59936;51.490;5.436;2024-02-16T13:34:41;101378.81;;;11.72;94.01
72055;BME280;59936;51.490;5.436;2024-02-16T13:37:08;101378.81;;;11.72;94.01
72055;BME280;59936;51.490;5.436;2024-02-16T13:39:34;101377.28;;;11.61;94.36
72055;BME280;59936;51.490;5.436;2024-02-16T13:42:01;101378.28;;;11.60;94.52
72055;BME280;59936;51.490;5.436;2024-02-16T13:44:28;101375.13;;;11.73;94.88
72055;BME280;59936;51.490;5.436;2024-02-16T13:46:55;101385.63;;;11.84;94.09
72055;BME280;59936;51.490;5.436;2024-02-16T13:49:22;101372.19;;;11.92;93.84
72055;BME280;59936;51.490;5.436;2024-02-16T13:51:49;101371.91;;;12.04;93.61
72055;BME280;59936;51.490;5.436;2024-02-16T13:54:16;101385.69;;;12.09;93.06
72055;BME280;59936;51.490;5.436;2024-02-16T13:56:43;101379.47;;;12.08;92.50
72055;BME280;59936;51.490;5.436;2024-02-16T13:59:10;101391.91;;;12.09;92.34
72055;BME280;59936;51.490;5.436;2024-02-16T14:01:37;101391.59;;;12.12;92.16
72055;BME280;59936;51.490;5.436;2024-02-16T14:04:03;101390.56;;;12.05;91.93
72055;BME280;59936;51.490;5.436;2024-02-16T14:06:30;101402.16;;;12.06;92.03
72055;BME280;59936;51.490;5.436;2024-02-16T14:08:57;101403.47;;;12.01;92.19
72055;BME280;59936;51.490;5.436;2024-02-16T14:11:24;101409.69;;;12.02;92.24
72055;BME280;59936;51.490;5.436;2024-02-16T14:13:51;101415.91;;;12.02;92.42
72055;BME280;59936;51.490;5.436;2024-02-16T14:16:18;101427.66;;;12.01;92.19
72055;BME280;59936;51.490;5.436;2024-02-16T14:18:44;101426.81;;;12.01;91.91
72055;BME280;59936;51.490;5.436;2024-02-16T14:21:11;101424.44;;;11.98;92.27
72055;BME280;59936;51.490;5.436;2024-02-16T14:23:38;101439.44;;;12.17;91.71
72055;BME280;59936;51.490;5.436;2024-02-16T14:26:05;101439.44;;;12.17;91.71
72055;BME280;59936;51.490;5.436;2024-02-16T14:28:32;101436.25;;;12.05;90.20
72055;BME280;59936;51.490;5.436;2024-02-16T14:30:58;101447.44;;;11.92;90.11
72055;BME280;59936;51.490;5.436;2024-02-16T14:33:25;101452.31;;;11.89;90.57
72055;BME280;59936;51.490;5.436;2024-02-16T14:35:52;101452.44;;;11.79;90.44
72055;BME280;59936;51.490;5.436;2024-02-16T14:38:19;101454.28;;;11.79;91.17
72055;BME280;59936;51.490;5.436;2024-02-16T14:40:46;101450.06;;;11.76;91.10
72055;BME280;59936;51.490;5.436;2024-02-16T14:43:12;101466.03;;;11.78;91.00
72055;BME280;59936;51.490;5.436;2024-02-16T14:45:39;101461.22;;;11.89;91.78
72055;BME280;59936;51.490;5.436;2024-02-16T14:48:06;101465.94;;;11.95;91.49
72055;BME280;59936;51.490;5.436;2024-02-16T14:50:34;101471.97;;;11.97;90.84
72055;BME280;59936;51.490;5.436;2024-02-16T14:53:00;101471.03;;;12.07;90.28
72055;BME280;59936;51.490;5.436;2024-02-16T14:55:28;101481.03;;;11.96;89.87
72055;BME280;59936;51.490;5.436;2024-02-16T14:57:56;101480.34;;;11.86;89.36
72055;BME280;59936;51.490;5.436;2024-02-16T15:00:23;101481.97;;;11.79;89.70
72055;BME280;59936;51.490;5.436;2024-02-16T15:02:50;101491.72;;;11.80;90.38
72055;BME280;59936;51.490;5.436;2024-02-16T15:05:16;101497.41;;;11.77;90.11
72055;BME280;59936;51.490;5.436;2024-02-16T15:07:43;101494.34;;;11.72;90.84
72055;BME280;59936;51.490;5.436;2024-02-16T15:10:10;101508.44;;;11.66;90.36
72055;BME280;59936;51.490;5.436;2024-02-16T15:12:37;101500.53;;;11.64;90.15
72055;BME280;59936;51.490;5.436;2024-02-16T15:15:04;101511.94;;;11.66;90.42
72055;BME280;59936;51.490;5.436;2024-02-16T15:17:32;101512.81;;;11.75;90.77
72055;BME280;59936;51.490;5.436;2024-02-16T15:19:58;101517.81;;;11.70;90.03
72055;BME280;59936;51.490;5.436;2024-02-16T15:22:25;101520.44;;;11.80;90.47
72055;BME280;59936;51.490;5.436;2024-02-16T15:24:52;101523.97;;;11.80;90.16
72055;BME280;59936;51.490;5.436;2024-02-16T15:27:19;101534.09;;;11.86;90.08
72055;BME280;59936;51.490;5.436;2024-02-16T15:29:46;101539.63;;;11.93;90.51
72055;BME280;59936;51.490;5.436;2024-02-16T15:32:12;101529.25;;;11.98;90.31
72055;BME280;59936;51.490;5.436;2024-02-16T15:34:39;101540.69;;;12.00;90.05
72055;BME280;59936;51.490;5.436;2024-02-16T15:37:06;101532.00;;;12.14;90.23
72055;BME280;59936;51.490;5.436;2024-02-16T15:39:33;101539.78;;;12.25;90.58
72055;BME280;59936;51.490;5.436;2024-02-16T15:42:00;101532.91;;;12.23;88.62
72055;BME280;59936;51.490;5.436;2024-02-16T15:44:26;101548.88;;;12.24;89.53
72055;BME280;59936;51.490;5.436;2024-02-16T15:46:54;101548.88;;;12.24;89.53
72055;BME280;59936;51.490;5.436;2024-02-16T15:49:21;101549.13;;;12.13;88.23
72055;BME280;59936;51.490;5.436;2024-02-16T15:51:48;101555.03;;;12.17;87.76
72055;BME280;59936;51.490;5.436;2024-02-16T15:54:15;101555.41;;;12.22;87.21
72055;BME280;59936;51.490;5.436;2024-02-16T15:56:41;101557.28;;;12.29;87.18
72055;BME280;59936;51.490;5.436;2024-02-16T15:59:08;101565.38;;;12.38;88.12
72055;BME280;59936;51.490;5.436;2024-02-16T16:01:35;101564.56;;;12.45;89.30
72055;BME280;59936;51.490;5.436;2024-02-16T16:04:02;101573.09;;;12.32;88.38
72055;BME280;59936;51.490;5.436;2024-02-16T16:06:29;101580.44;;;12.22;88.31
72055;BME280;59936;51.490;5.436;2024-02-16T16:08:56;101591.00;;;12.16;88.74
72055;BME280;59936;51.490;5.436;2024-02-16T16:11:22;101594.81;;;12.05;88.35
72055;BME280;59936;51.490;5.436;2024-02-16T16:13:49;101602.72;;;12.07;88.18
72055;BME280;59936;51.490;5.436;2024-02-16T16:16:16;101608.13;;;12.15;89.62
72055;BME280;59936;51.490;5.436;2024-02-16T16:18:43;101605.41;;;12.07;89.00
72055;BME280;59936;51.490;5.436;2024-02-16T16:21:10;101620.94;;;11.95;88.21
72055;BME280;59936;51.490;5.436;2024-02-16T16:23:36;101620.78;;;11.96;87.37
72055;BME280;59936;51.490;5.436;2024-02-16T16:26:03;101618.94;;;11.97;87.67
72055;BME280;59936;51.490;5.436;2024-02-16T16:28:30;101627.13;;;11.87;87.36
72055;BME280;59936;51.490;5.436;2024-02-16T16:30:57;101634.13;;;11.80;88.24
72055;BME280;59936;51.490;5.436;2024-02-16T16:33:24;101636.34;;;11.67;88.13
72055;BME280;59936;51.490;5.436;2024-02-16T16:35:51;101640.72;;;11.68;88.44
72055;BME280;59936;51.490;5.436;2024-02-16T16:38:18;101640.72;;;11.68;88.44
72055;BME280;59936;51.490;5.436;2024-02-16T16:40:45;101642.91;;;11.47;89.08
72055;BME280;59936;51.490;5.436;2024-02-16T16:43:12;101655.16;;;11.31;89.77
72055;BME280;59936;51.490;5.436;2024-02-16T16:45:39;101653.00;;;10.99;89.69
72055;BME280;59936;51.490;5.436;2024-02-16T16:48:06;101656.75;;;10.89;90.63
72055;BME280;59936;51.490;5.436;2024-02-16T16:50:34;101660.72;;;10.85;91.46
72055;BME280;59936;51.490;5.436;2024-02-16T16:53:01;101661.94;;;10.73;91.59
72055;BME280;59936;51.490;5.436;2024-02-16T16:55:28;101670.16;;;10.61;91.49
72055;BME280;59936;51.490;5.436;2024-02-16T16:57:55;101671.75;;;10.54;92.52
72055;BME280;59936;51.490;5.436;2024-02-16T17:00:22;101677.72;;;10.48;92.87
72055;BME280;59936;51.490;5.436;2024-02-16T17:02:49;101685.25;;;10.35;92.48
72055;BME280;59936;51.490;5.436;2024-02-16T17:05:16;101697.09;;;10.33;93.43
72055;BME280;59936;51.490;5.436;2024-02-16T17:07:45;101703.03;;;10.36;93.38
72055;BME280;59936;51.490;5.436;2024-02-16T17:10:12;101714.19;;;10.32;93.22
72055;BME280;59936;51.490;5.436;2024-02-16T17:12:39;101708.38;;;10.36;93.73
72055;BME280;59936;51.490;5.436;2024-02-16T17:15:06;101718.53;;;10.33;93.37
72055;BME280;59936;51.490;5.436;2024-02-16T17:17:33;101726.44;;;10.34;93.91
72055;BME280;59936;51.490;5.436;2024-02-16T17:20:00;101741.34;;;10.46;93.88
72055;BME280;59936;51.490;5.436;2024-02-16T17:22:27;101739.78;;;10.53;93.72
72055;BME280;59936;51.490;5.436;2024-02-16T17:24:54;101742.72;;;10.60;93.67
72055;BME280;59936;51.490;5.436;2024-02-16T17:27:20;101749.88;;;10.69;93.73
72055;BME280;59936;51.490;5.436;2024-02-16T17:29:47;101758.19;;;10.76;93.80
72055;BME280;59936;51.490;5.436;2024-02-16T17:32:14;101758.41;;;10.92;93.68
72055;BME280;59936;51.490;5.436;2024-02-16T17:34:41;101753.72;;;10.94;93.41
72055;BME280;59936;51.490;5.436;2024-02-16T17:37:08;101767.00;;;10.95;93.18
72055;BME280;59936;51.490;5.436;2024-02-16T17:39:34;101764.31;;;10.95;93.18
72055;BME280;59936;51.490;5.436;2024-02-16T17:42:01;101767.16;;;10.94;92.93
72055;BME280;59936;51.490;5.436;2024-02-16T17:44:28;101773.72;;;10.82;93.15
72055;BME280;59936;51.490;5.436;2024-02-16T17:46:55;101777.13;;;10.74;93.50
72055;BME280;59936;51.490;5.436;2024-02-16T17:49:22;101780.22;;;10.70;93.64
72055;BME280;59936;51.490;5.436;2024-02-16T17:51:49;101787.84;;;10.64;93.81
72055;BME280;59936;51.490;5.436;2024-02-16T17:54:16;101785.63;;;10.60;93.97
72055;BME280;59936;51.490;5.436;2024-02-16T17:56:42;101796.03;;;10.73;93.90
72055;BME280;59936;51.490;5.436;2024-02-16T17:59:09;101807.72;;;10.81;93.69
72055;BME280;59936;51.490;5.436;2024-02-16T18:01:36;101804.09;;;10.73;93.44
72055;BME280;59936;51.490;5.436;2024-02-16T18:04:03;101810.56;;;10.70;93.63
72055;BME280;59936;51.490;5.436;2024-02-16T18:06:30;101810.56;;;10.70;93.63
72055;BME280;59936;51.490;5.436;2024-02-16T18:08:57;101808.50;;;10.54;94.04
72055;BME280;59936;51.490;5.436;2024-02-16T18:11:23;101810.50;;;10.52;94.29
72055;BME280;59936;51.490;5.436;2024-02-16T18:13:50;101822.63;;;10.56;94.96
72055;BME280;59936;51.490;5.436;2024-02-16T18:16:17;101826.84;;;10.59;94.58
72055;BME280;59936;51.490;5.436;2024-02-16T18:18:44;101829.34;;;10.80;94.15
72055;BME280;59936;51.490;5.436;2024-02-16T18:21:11;101836.84;;;10.67;94.04
72055;BME280;59936;51.490;5.436;2024-02-16T18:23:37;101838.13;;;10.62;94.03
72055;BME280;59936;51.490;5.436;2024-02-16T18:26:04;101844.31;;;10.63;93.94
72055;BME280;59936;51.490;5.436;2024-02-16T18:28:31;101848.44;;;10.48;93.75
72055;BME280;59936;51.490;5.436;2024-02-16T18:30:58;101852.97;;;10.47;93.89
72055;BME280;59936;51.490;5.436;2024-02-16T18:33:25;101861.28;;;10.44;93.97
72055;BME280;59936;51.490;5.436;2024-02-16T18:35:51;101854.38;;;10.51;93.66
72055;BME280;59936;51.490;5.436;2024-02-16T18:38:18;101867.22;;;10.48;93.30
72055;BME280;59936;51.490;5.436;2024-02-16T18:40:45;101870.59;;;10.40;93.56
72055;BME280;59936;51.490;5.436;2024-02-16T18:43:12;101872.19;;;10.33;93.60
72055;BME280;59936;51.490;5.436;2024-02-16T18:45:39;101884.47;;;10.36;93.62
72055;BME280;59936;51.490;5.436;2024-02-16T18:48:06;101883.59;;;10.45;93.11
72055;BME280;59936;51.490;5.436;2024-02-16T18:50:33;101894.19;;;10.27;93.30
72055;BME280;59936;51.490;5.436;2024-02-16T18:53:00;101887.84;;;10.38;93.08
72055;BME280;59936;51.490;5.436;2024-02-16T18:55:27;101894.91;;;10.39;92.83
72055;BME280;59936;51.490;5.436;2024-02-16T18:57:54;101903.47;;;10.23;92.66
72055;BME280;59936;51.490;5.436;2024-02-16T19:00:21;101910.09;;;10.09;92.39
72055;BME280;59936;51.490;5.436;2024-02-16T19:02:47;101910.75;;;10.02;92.51
72055;BME280;59936;51.490;5.436;2024-02-16T19:05:14;101921.22;;;10.05;91.99
72055;BME280;59936;51.490;5.436;2024-02-16T19:07:41;101921.22;;;10.05;91.99
72055;BME280;59936;51.490;5.436;2024-02-16T19:10:08;101918.41;;;10.06;92.24
72055;BME280;59936;51.490;5.436;2024-02-16T19:12:35;101916.69;;;10.05;92.42
72055;BME280;59936;51.490;5.436;2024-02-16T19:15:02;101921.03;;;9.87;92.37
72055;BME280;59936;51.490;5.436;2024-02-16T19:17:29;101922.03;;;9.86;92.89
72055;BME280;59936;51.490;5.436;2024-02-16T19:19:56;101921.44;;;9.82;92.96
72055;BME280;59936;51.490;5.436;2024-02-16T19:22:23;101938.50;;;9.81;92.75
72055;BME280;59936;51.490;5.436;2024-02-16T19:24:49;101933.69;;;9.75;92.74
72055;BME280;59936;51.490;5.436;2024-02-16T19:27:16;101937.63;;;9.71;92.91
72055;BME280;59936;51.490;5.436;2024-02-16T19:29:43;101940.59;;;9.78;92.32
72055;BME280;59936;51.490;5.436;2024-02-16T19:32:10;101938.03;;;9.67;92.37
72055;BME280;59936;51.490;5.436;2024-02-16T19:34:38;101936.00;;;9.49;92.72
72055;BME280;59936;51.490;5.436;2024-02-16T19:37:05;101941.13;;;9.32;93.20
72055;BME280;59936;51.490;5.436;2024-02-16T19:39:32;101947.41;;;9.21;93.50
72055;BME280;59936;51.490;5.436;2024-02-16T19:41:58;101953.25;;;9.05;93.64
72055;BME280;59936;51.490;5.436;2024-02-16T19:44:25;101951.09;;;8.99;94.38
72055;BME280;59936;51.490;5.436;2024-02-16T19:46:52;101949.84;;;9.03;95.01
72055;BME280;59936;51.490;5.436;2024-02-16T19:49:19;101956.44;;;8.99;95.29
72055;BME280;59936;51.490;5.436;2024-02-16T19:51:46;101963.88;;;8.96;95.13
72055;BME280;59936;51.490;5.436;2024-02-16T19:54:13;101964.84;;;8.94;95.07
72055;BME280;59936;51.490;5.436;2024-02-16T19:56:40;101964.72;;;8.96;95.15
72055;BME280;59936;51.490;5.436;2024-02-16T19:59:06;101971.00;;;8.85;95.04
72055;BME280;59936;51.490;5.436;2024-02-16T20:01:33;101974.31;;;8.78;95.09
72055;BME280;59936;51.490;5.436;2024-02-16T20:04:00;101981.53;;;8.66;95.23
72055;BME280;59936;51.490;5.436;2024-02-16T20:06:27;101984.06;;;8.68;96.64
72055;BME280;59936;51.490;5.436;2024-02-16T20:08:54;101996.47;;;8.69;96.03
72055;BME280;59936;51.490;5.436;2024-02-16T20:11:21;101994.97;;;8.76;96.37
72055;BME280;59936;51.490;5.436;2024-02-16T20:13:48;101997.16;;;8.82;96.32
72055;BME280;59936;51.490;5.436;2024-02-16T20:16:18;102002.03;;;8.77;96.00
72055;BME280;59936;51.490;5.436;2024-02-16T20:18:44;102012.25;;;8.72;95.69
72055;BME280;59936;51.490;5.436;2024-02-16T20:21:11;102018.81;;;8.68;96.76
72055;BME280;59936;51.490;5.436;2024-02-16T20:23:38;102017.19;;;8.55;96.33
72055;BME280;59936;51.490;5.436;2024-02-16T20:26:05;102019.31;;;8.41;96.21
72055;BME280;59936;51.490;5.436;2024-02-16T20:28:32;102037.50;;;8.24;96.37
72055;BME280;59936;51.490;5.436;2024-02-16T20:30:58;102047.72;;;8.42;96.94
72055;BME280;59936;51.490;5.436;2024-02-16T20:33:25;102047.72;;;8.42;96.94
72055;BME280;59936;51.490;5.436;2024-02-16T20:35:52;102038.13;;;8.28;96.79
72055;BME280;59936;51.490;5.436;2024-02-16T20:38:19;102046.66;;;8.22;97.05
72055;BME280;59936;51.490;5.436;2024-02-16T20:40:46;102042.28;;;8.10;97.11
72055;BME280;59936;51.490;5.436;2024-02-16T20:43:12;102051.28;;;7.98;96.61
72055;BME280;59936;51.490;5.436;2024-02-16T20:45:39;102060.16;;;7.98;97.35
72055;BME280;59936;51.490;5.436;2024-02-16T20:48:06;102063.19;;;7.94;97.43
72055;BME280;59936;51.490;5.436;2024-02-16T20:50:33;102073.50;;;7.87;97.09
72055;BME280;59936;51.490;5.436;2024-02-16T20:53:00;102078.22;;;7.72;96.94
72055;BME280;59936;51.490;5.436;2024-02-16T20:55:27;102081.59;;;7.63;97.17
72055;BME280;59936;51.490;5.436;2024-02-16T20:57:54;102077.75;;;7.78;97.50
72055;BME280;59936;51.490;5.436;2024-02-16T21:00:20;102081.84;;;7.82;97.71
72055;BME280;59936;51.490;5.436;2024-02-16T21:02:47;102091.78;;;7.80;97.35
72055;BME280;59936;51.490;5.436;2024-02-16T21:05:14;102088.91;;;7.72;97.34
72055;BME280;59936;51.490;5.436;2024-02-16T21:07:41;102090.59;;;7.73;97.64
72055;BME280;59936;51.490;5.436;2024-02-16T21:10:08;102096.53;;;7.66;97.63
72055;BME280;59936;51.490;5.436;2024-02-16T21:12:35;102093.84;;;7.54;97.45
72055;BME280;59936;51.490;5.436;2024-02-16T21:15:02;102101.25;;;7.51;97.98
72055;BME280;59936;51.490;5.436;2024-02-16T21:17:29;102096.25;;;7.46;98.22
72055;BME280;59936;51.490;5.436;2024-02-16T21:19:56;102106.28;;;7.32;97.73
72055;BME280;59936;51.490;5.436;2024-02-16T21:22:23;102119.63;;;7.32;98.19
72055;BME280;59936;51.490;5.436;2024-02-16T21:24:50;102119.63;;;7.32;98.19
72055;BME280;59936;51.490;5.436;2024-02-16T21:27:17;102126.25;;;7.26;98.04
72055;BME280;59936;51.490;5.436;2024-02-16T21:29:43;102131.19;;;7.19;97.83
72055;BME280;59936;51.490;5.436;2024-02-16T21:32:10;102129.72;;;7.15;98.42
72055;BME280;59936;51.490;5.436;2024-02-16T21:34:37;102130.75;;;7.26;99.37
72055;BME280;59936;51.490;5.436;2024-02-16T21:37:04;102131.59;;;7.26;99.38
72055;BME280;59936;51.490;5.436;2024-02-16T21:39:31;102125.53;;;7.24;99.30
72055;BME280;59936;51.490;5.436;2024-02-16T21:41:57;102132.78;;;7.22;99.14
72055;BME280;59936;51.490;5.436;2024-02-16T21:44:24;102133.94;;;7.31;99.51
72055;BME280;59936;51.490;5.436;2024-02-16T21:46:51;102133.59;;;7.35;99.46
72055;BME280;59936;51.490;5.436;2024-02-16T21:49:18;102140.75;;;7.46;99.85
72055;BME280;59936;51.490;5.436;2024-02-16T21:51:45;102149.03;;;7.54;99.55
72055;BME280;59936;51.490;5.436;2024-02-16T21:54:12;102151.47;;;7.57;99.35
72055;BME280;59936;51.490;5.436;2024-02-16T21:56:38;102149.91;;;7.66;99.21
72055;BME280;59936;51.490;5.436;2024-02-16T21:59:05;102148.22;;;7.65;99.15
72055;BME280;59936;51.490;5.436;2024-02-16T22:01:32;102161.81;;;7.73;99.05
72055;BME280;59936;51.490;5.436;2024-02-16T22:03:59;102164.16;;;7.77;99.05
72055;BME280;59936;51.490;5.436;2024-02-16T22:06:26;102160.97;;;7.83;99.01
72055;BME280;59936;51.490;5.436;2024-02-16T22:08:53;102161.09;;;7.82;98.92
72055;BME280;59936;51.490;5.436;2024-02-16T22:11:22;102159.78;;;7.87;99.01
72055;BME280;59936;51.490;5.436;2024-02-16T22:13:50;102166.59;;;7.91;98.97
72055;BME280;59936;51.490;5.436;2024-02-16T22:16:18;102178.41;;;8.00;98.83
72055;BME280;59936;51.490;5.436;2024-02-16T22:18:46;102179.09;;;8.02;98.75
72055;BME280;59936;51.490;5.436;2024-02-16T22:21:13;102185.06;;;8.06;98.66
72055;BME280;59936;51.490;5.436;2024-02-16T22:23:40;102193.91;;;8.06;98.49
72055;BME280;59936;51.490;5.436;2024-02-16T22:26:08;102189.78;;;8.02;98.27
72055;BME280;59936;51.490;5.436;2024-02-16T22:28:36;102193.56;;;8.00;98.27
72055;BME280;59936;51.490;5.436;2024-02-16T22:31:03;102199.16;;;7.97;98.23
72055;BME280;59936;51.490;5.436;2024-02-16T22:33:30;102199.88;;;7.99;98.50
72055;BME280;59936;51.490;5.436;2024-02-16T22:35:58;102199.88;;;7.99;98.50
72055;BME280;59936;51.490;5.436;2024-02-16T22:38:25;102201.69;;;7.98;98.23
72055;BME280;59936;51.490;5.436;2024-02-16T22:40:52;102201.56;;;8.00;98.13
72055;BME280;59936;51.490;5.436;2024-02-16T22:43:19;102207.78;;;8.00;97.95
72055;BME280;59936;51.490;5.436;2024-02-16T22:45:46;102206.53;;;8.04;98.04
72055;BME280;59936;51.490;5.436;2024-02-16T22:48:13;102214.56;;;8.04;98.10
72055;BME280;59936;51.490;5.436;2024-02-16T22:50:40;102214.72;;;8.14;98.37
72055;BME280;59936;51.490;5.436;2024-02-16T22:53:08;102216.16;;;8.18;98.36
72055;BME280;59936;51.490;5.436;2024-02-16T22:55:36;102229.16;;;8.11;98.28
72055;BME280;59936;51.490;5.436;2024-02-16T22:58:03;102230.69;;;8.03;98.09
72055;BME280;59936;51.490;5.436;2024-02-16T23:00:31;102230.69;;;7.91;97.97
72055;BME280;59936;51.490;5.436;2024-02-16T23:02:58;102229.56;;;7.83;97.89
72055;BME280;59936;51.490;5.436;2024-02-16T23:05:26;102224.53;;;7.67;97.65
72055;BME280;59936;51.490;5.436;2024-02-16T23:07:53;102244.38;;;7.52;97.67
72055;BME280;59936;51.490;5.436;2024-02-16T23:10:20;102232.06;;;7.38;97.79
72055;BME280;59936;51.490;5.436;2024-02-16T23:12:48;102233.41;;;7.20;97.44
72055;BME280;59936;51.490;5.436;2024-02-16T23:15:15;102242.22;;;7.09;97.55
72055;BME280;59936;51.490;5.436;2024-02-16T23:17:45;102246.28;;;7.02;97.91
72055;BME280;59936;51.490;5.436;2024-02-16T23:20:13;102245.44;;;7.02;98.33
72055;BME280;59936;51.490;5.436;2024-02-16T23:23:01;102245.03;;;6.95;98.21